createdAt,value
2023-01-02T00:00:21.026Z,1007.2
2023-01-02T00:01:24.778Z,1007.2
2023-01-02T00:02:27.712Z,1007.1
2023-01-02T00:03:31.692Z,1007.1
2023-01-02T00:04:35.383Z,1007.1
2023-01-02T00:05:38.284Z,1007.1
2023-01-02T00:06:41.262Z,1007
2023-01-02T00:07:44.420Z,1006.9
2023-01-02T00:08:47.206Z,1006.9
2023-01-02T00:09:50.578Z,1006.9
2023-01-02T00:10:53.499Z,1006.9
2023-01-02T00:11:57.513Z,1006.8
2023-01-02T00:13:00.573Z,1006.9
2023-01-02T00:14:03.996Z,1006.8
2023-01-02T00:15:06.821Z,1006.8
2023-01-02T00:16:11.211Z,1006.8
2023-01-02T00:17:15.025Z,1006.7
2023-01-02T00:18:18.439Z,1006.7
2023-01-02T00:19:21.060Z,1006.7
2023-01-02T00:20:24.831Z,1006.7
2023-01-02T00:21:27.885Z,1006.7
2023-01-02T00:22:30.980Z,1006.7
2023-01-02T00:23:33.773Z,1006.8
2023-01-02T00:24:36.736Z,1006.7
2023-01-02T00:25:40.445Z,1006.7
2023-01-02T00:26:43.466Z,1006.7
2023-01-02T00:27:46.612Z,1006.7
2023-01-02T00:28:49.320Z,1006.7
2023-01-02T00:29:52.696Z,1006.7
2023-01-02T00:30:56.187Z,1006.7
2023-01-02T00:32:00.702Z,1006.7
2023-01-02T00:33:03.863Z,1006.7
2023-01-02T00:34:07.209Z,1006.6
2023-01-02T00:35:10.273Z,1006.6
2023-01-02T00:37:32.930Z,1006.5
2023-01-02T00:38:38.716Z,1006.5
2023-01-02T00:39:41.593Z,1006.5
2023-01-02T00:40:44.627Z,1006.5
2023-01-02T00:41:48.068Z,1006.5
2023-01-02T00:42:50.503Z,1006.5
2023-01-02T00:43:53.313Z,1006.5
2023-01-02T00:44:56.117Z,1006.5
2023-01-02T00:45:59.155Z,1006.5
2023-01-02T00:47:14.789Z,1006.5
2023-01-02T00:48:18.204Z,1006.5
2023-01-02T00:49:21.163Z,1006.5
2023-01-02T00:50:24.150Z,1006.5
2023-01-02T00:51:27.930Z,1006.5
2023-01-02T00:52:31.709Z,1006.5
2023-01-02T00:53:34.441Z,1006.5
2023-01-02T00:54:37.256Z,1006.5
2023-01-02T00:55:40.293Z,1006.4
2023-01-02T00:56:43.389Z,1006.4
2023-01-02T00:57:46.542Z,1006.4
2023-01-02T00:58:49.554Z,1006.4
2023-01-02T00:59:53.335Z,1006.4
2023-01-02T01:00:56.244Z,1006.3
2023-01-02T01:01:59.724Z,1006.3
2023-01-02T01:03:04.949Z,1006.2
2023-01-02T01:04:08.244Z,1006.2
2023-01-02T01:05:12.159Z,1006.2
2023-01-02T01:06:14.878Z,1006.2
2023-01-02T01:07:17.341Z,1006.1
2023-01-02T01:08:20.386Z,1006.1
2023-01-02T01:09:23.864Z,1006.1
2023-01-02T01:10:26.703Z,1006
2023-01-02T01:11:29.795Z,1006
2023-01-02T01:12:32.491Z,1006
2023-01-02T01:13:36.246Z,1005.9
2023-01-02T01:14:39.732Z,1006
2023-01-02T01:15:43.189Z,1005.9
2023-01-02T01:16:46.533Z,1005.9
2023-01-02T01:17:49.653Z,1005.9
2023-01-02T01:18:53.774Z,1005.9
2023-01-02T01:19:57.117Z,1005.9
2023-01-02T01:21:00.234Z,1005.9
2023-01-02T01:22:03.323Z,1005.8
2023-01-02T01:23:06.402Z,1005.8
2023-01-02T01:24:09.118Z,1005.7
2023-01-02T01:25:12.510Z,1005.7
2023-01-02T01:26:15.954Z,1005.7
2023-01-02T01:27:19.018Z,1005.6
2023-01-02T01:28:21.861Z,1005.6
2023-01-02T01:29:24.920Z,1005.5
2023-01-02T01:30:27.969Z,1005.6
2023-01-02T01:31:30.746Z,1005.5
2023-01-02T01:32:34.081Z,1005.4
2023-01-02T01:33:37.499Z,1005.4
2023-01-02T01:34:41.477Z,1005.4
2023-01-02T01:35:44.473Z,1005.4
2023-01-02T01:36:47.575Z,1005.3
2023-01-02T01:37:50.385Z,1005.3
2023-01-02T01:38:54.030Z,1005.3
2023-01-02T01:39:57.657Z,1005.4
2023-01-02T01:41:01.309Z,1005.3
2023-01-02T01:42:04.461Z,1005.3
2023-01-02T01:43:07.859Z,1005.2
2023-01-02T01:44:10.312Z,1005.3
2023-01-02T01:45:13.445Z,1005.3
2023-01-02T01:46:16.543Z,1005.2
2023-01-02T01:47:19.771Z,1005.2
2023-01-02T01:48:23.559Z,1005.2
2023-01-02T01:49:26.110Z,1005.3
2023-01-02T01:50:30.375Z,1005.3
2023-01-02T01:51:33.756Z,1005.2
2023-01-02T01:52:36.520Z,1005.2
2023-01-02T01:53:39.674Z,1005.2
2023-01-02T01:54:42.945Z,1005.1
2023-01-02T01:55:45.946Z,1005.1
2023-01-02T01:56:49.110Z,1005.1
2023-01-02T01:57:52.190Z,1005.1
2023-01-02T01:58:55.902Z,1005
2023-01-02T01:59:58.907Z,1005.1
2023-01-02T02:01:02.603Z,1005.1
2023-01-02T02:02:05.901Z,1005
2023-01-02T02:03:10.731Z,1005
2023-01-02T02:04:14.593Z,1005
2023-01-02T02:05:18.003Z,1005
2023-01-02T02:06:21.824Z,1004.9
2023-01-02T02:07:24.838Z,1004.9
2023-01-02T02:08:28.037Z,1004.9
2023-01-02T02:09:31.052Z,1004.9
2023-01-02T02:10:34.226Z,1004.9
2023-01-02T02:11:37.655Z,1004.9
2023-01-02T02:12:40.144Z,1004.9
2023-01-02T02:13:42.909Z,1004.9
2023-01-02T02:14:46.350Z,1004.9
2023-01-02T02:15:49.073Z,1004.8
2023-01-02T02:16:52.938Z,1004.8
2023-01-02T02:17:56.309Z,1004.8
2023-01-02T02:18:59.452Z,1004.8
2023-01-02T02:20:02.546Z,1004.7
2023-01-02T02:21:06.224Z,1004.7
2023-01-02T02:22:10.622Z,1004.7
2023-01-02T02:23:13.524Z,1004.7
2023-01-02T02:24:17.181Z,1004.7
2023-01-02T02:25:20.150Z,1004.7
2023-01-02T02:26:23.596Z,1004.7
2023-01-02T02:27:26.955Z,1004.7
2023-01-02T02:28:30.635Z,1004.6
2023-01-02T02:29:34.113Z,1004.6
2023-01-02T02:30:37.396Z,1004.6
2023-01-02T02:31:40.215Z,1004.6
2023-01-02T02:32:43.835Z,1004.6
2023-01-02T02:33:47.568Z,1004.6
2023-01-02T02:34:50.441Z,1004.6
2023-01-02T02:35:53.917Z,1004.5
2023-01-02T02:36:57.033Z,1004.5
2023-01-02T02:38:00.985Z,1004.5
2023-01-02T02:39:03.820Z,1004.5
2023-01-02T02:40:07.314Z,1004.5
2023-01-02T02:41:10.472Z,1004.4
2023-01-02T02:42:13.839Z,1004.4
2023-01-02T02:43:15.990Z,1004.4
2023-01-02T02:44:19.081Z,1004.3
2023-01-02T02:45:22.220Z,1004.3
2023-01-02T02:46:25.065Z,1004.2
2023-01-02T02:47:28.538Z,1004.1
2023-01-02T02:48:31.882Z,1004.1
2023-01-02T02:49:34.646Z,1004.1
2023-01-02T02:50:37.431Z,1004.1
2023-01-02T02:51:40.243Z,1004.2
2023-01-02T02:52:43.713Z,1004.2
2023-01-02T02:53:47.570Z,1004.2
2023-01-02T02:54:50.589Z,1004.1
2023-01-02T02:55:53.628Z,1004.1
2023-01-02T02:56:56.701Z,1004.1
2023-01-02T02:57:59.773Z,1004
2023-01-02T02:59:02.566Z,1004.1
2023-01-02T03:00:05.754Z,1004.1
2023-01-02T03:01:08.634Z,1004.1
2023-01-02T03:02:12.010Z,1004.1
2023-01-02T03:03:16.701Z,1004.1
2023-01-02T03:04:19.917Z,1004.1
2023-01-02T03:05:22.432Z,1004.1
2023-01-02T03:06:25.415Z,1004.1
2023-01-02T03:07:28.494Z,1004.1
2023-01-02T03:08:33.676Z,1004.1
2023-01-02T03:09:37.615Z,1004.1
2023-01-02T03:10:40.612Z,1004.1
2023-01-02T03:11:44.420Z,1004
2023-01-02T03:12:47.501Z,1004
2023-01-02T03:13:50.231Z,1004
2023-01-02T03:14:53.314Z,1004
2023-01-02T03:15:56.401Z,1004
2023-01-02T03:16:59.665Z,1004
2023-01-02T03:18:03.148Z,1003.9
2023-01-02T03:19:05.999Z,1003.9
2023-01-02T03:20:09.685Z,1003.9
2023-01-02T03:21:12.722Z,1003.9
2023-01-02T03:22:16.115Z,1003.9
2023-01-02T03:23:19.124Z,1003.9
2023-01-02T03:24:22.608Z,1003.8
2023-01-02T03:25:26.905Z,1003.8
2023-01-02T03:26:29.443Z,1003.8
2023-01-02T03:27:32.175Z,1003.9
2023-01-02T03:28:34.931Z,1003.8
2023-01-02T03:29:37.357Z,1003.8
2023-01-02T03:30:40.472Z,1003.8
2023-01-02T03:31:43.786Z,1003.8
2023-01-02T03:32:47.033Z,1003.8
2023-01-02T03:33:50.415Z,1003.8
2023-01-02T03:34:53.331Z,1003.7
2023-01-02T03:35:56.619Z,1003.8
2023-01-02T03:36:59.681Z,1003.8
2023-01-02T03:38:03.054Z,1003.8
2023-01-02T03:39:05.885Z,1003.8
2023-01-02T03:40:08.001Z,1003.8
2023-01-02T03:41:12.000Z,1003.7
2023-01-02T03:42:14.909Z,1003.8
2023-01-02T03:43:18.396Z,1003.7
2023-01-02T03:44:21.465Z,1003.7
2023-01-02T03:45:24.910Z,1003.7
2023-01-02T03:46:28.376Z,1003.6
2023-01-02T03:47:31.486Z,1003.7
2023-01-02T03:48:33.974Z,1003.6
2023-01-02T03:49:37.028Z,1003.7
2023-01-02T03:50:40.353Z,1003.6
2023-01-02T03:51:43.159Z,1003.6
2023-01-02T03:52:45.895Z,1003.6
2023-01-02T03:53:49.326Z,1003.5
2023-01-02T03:54:52.496Z,1003.5
2023-01-02T03:55:55.986Z,1003.5
2023-01-02T03:57:00.299Z,1003.5
2023-01-02T03:58:03.687Z,1003.5
2023-01-02T03:59:06.438Z,1003.4
2023-01-02T04:00:09.193Z,1003.4
2023-01-02T04:01:12.757Z,1003.4
2023-01-02T04:02:17.392Z,1003.5
2023-01-02T04:03:21.713Z,1003.4
2023-01-02T04:04:25.071Z,1003.4
2023-01-02T04:05:28.505Z,1003.4
2023-01-02T04:06:31.687Z,1003.4
2023-01-02T04:07:34.412Z,1003.4
2023-01-02T04:08:37.848Z,1003.3
2023-01-02T04:09:40.581Z,1003.3
2023-01-02T04:10:43.295Z,1003.3
2023-01-02T04:11:46.160Z,1003.4
2023-01-02T04:12:50.387Z,1003.4
2023-01-02T04:13:53.680Z,1003.3
2023-01-02T04:14:56.527Z,1003.3
2023-01-02T04:15:59.487Z,1003.3
2023-01-02T04:17:02.517Z,1003.2
2023-01-02T04:18:05.838Z,1003.3
2023-01-02T04:19:09.310Z,1003.2
2023-01-02T04:20:12.749Z,1003.2
2023-01-02T04:21:15.462Z,1003.2
2023-01-02T04:22:18.589Z,1003.2
2023-01-02T04:23:21.013Z,1003.2
2023-01-02T04:24:24.074Z,1003.2
2023-01-02T04:25:26.783Z,1003.2
2023-01-02T04:26:29.853Z,1003.2
2023-01-02T04:27:32.435Z,1003.3
2023-01-02T04:28:36.563Z,1003.2
2023-01-02T04:29:39.948Z,1003.3
2023-01-02T04:30:42.712Z,1003.3
2023-01-02T04:31:46.478Z,1003.3
2023-01-02T04:32:49.538Z,1003.2
2023-01-02T04:33:52.914Z,1003.2
2023-01-02T04:34:55.600Z,1003.2
2023-01-02T04:35:58.398Z,1003.2
2023-01-02T04:37:02.104Z,1003.2
2023-01-02T04:38:05.745Z,1003.2
2023-01-02T04:39:08.827Z,1003.1
2023-01-02T04:40:12.171Z,1003.2
2023-01-02T04:41:15.208Z,1003.2
2023-01-02T04:42:18.661Z,1003.2
2023-01-02T04:43:21.543Z,1003.2
2023-01-02T04:44:25.501Z,1003.2
2023-01-02T04:45:27.994Z,1003.2
2023-01-02T04:46:31.246Z,1003.1
2023-01-02T04:47:33.933Z,1003.1
2023-01-02T04:48:37.266Z,1003.1
2023-01-02T04:49:40.706Z,1003.1
2023-01-02T04:50:44.010Z,1003.1
2023-01-02T04:51:47.450Z,1003.1
2023-01-02T04:52:50.548Z,1003.1
2023-01-02T04:53:53.062Z,1003.1
2023-01-02T04:54:55.627Z,1003.2
2023-01-02T04:55:58.619Z,1003.2
2023-01-02T04:57:01.722Z,1003.2
2023-01-02T04:58:04.430Z,1003.2
2023-01-02T04:59:07.194Z,1003.1
2023-01-02T05:00:11.409Z,1003.1
2023-01-02T05:01:15.298Z,1003.1
2023-01-02T05:02:20.027Z,1003.1
2023-01-02T05:03:23.294Z,1003.2
2023-01-02T05:04:26.513Z,1003.1
2023-01-02T05:05:29.530Z,1003.1
2023-01-02T05:06:32.441Z,1003.1
2023-01-02T05:07:35.443Z,1003.1
2023-01-02T05:08:38.043Z,1003.1
2023-01-02T05:09:42.057Z,1003.1
2023-01-02T05:10:45.134Z,1003.1
2023-01-02T05:11:47.644Z,1003.1
2023-01-02T05:12:50.986Z,1003.1
2023-01-02T05:13:54.046Z,1003.1
2023-01-02T05:14:56.879Z,1003.2
2023-01-02T05:16:01.143Z,1003.1
2023-01-02T05:17:05.188Z,1003.1
2023-01-02T05:18:08.581Z,1003.2
2023-01-02T05:19:11.385Z,1003.2
2023-01-02T05:20:15.115Z,1003.2
2023-01-02T05:21:17.886Z,1003.2
2023-01-02T05:22:20.435Z,1003.2
2023-01-02T05:23:23.193Z,1003.3
2023-01-02T05:24:26.629Z,1003.2
2023-01-02T05:25:30.031Z,1003.2
2023-01-02T05:26:33.222Z,1003.2
2023-01-02T05:27:36.418Z,1003.2
2023-01-02T05:28:39.223Z,1003.1
2023-01-02T05:29:41.681Z,1003.2
2023-01-02T05:30:44.420Z,1003.1
2023-01-02T05:31:48.513Z,1003.3
2023-01-02T05:32:51.339Z,1003.3
2023-01-02T05:33:54.536Z,1003.1
2023-01-02T05:34:57.676Z,1003.2
2023-01-02T05:36:00.722Z,1003.2
2023-01-02T05:37:03.815Z,1003.2
2023-01-02T05:38:06.573Z,1003.2
2023-01-02T05:39:09.101Z,1003.2
2023-01-02T05:40:11.909Z,1003.3
2023-01-02T05:41:15.070Z,1003.2
2023-01-02T05:42:18.707Z,1003.2
2023-01-02T05:43:21.910Z,1003.2
2023-01-02T05:44:24.897Z,1003.2
2023-01-02T05:45:27.702Z,1003.2
2023-01-02T05:46:30.858Z,1003.2
2023-01-02T05:47:35.230Z,1003.2
2023-01-02T05:48:38.603Z,1003.1
2023-01-02T05:49:41.987Z,1003.2
2023-01-02T05:50:45.434Z,1003.2
2023-01-02T05:51:48.787Z,1003.1
2023-01-02T05:52:51.577Z,1003.2
2023-01-02T05:53:54.997Z,1003.2
2023-01-02T05:54:58.041Z,1003.1
2023-01-02T05:56:01.014Z,1003.2
2023-01-02T05:57:04.356Z,1003.3
2023-01-02T05:58:07.537Z,1003.2
2023-01-02T05:59:10.898Z,1003.2
2023-01-02T06:00:13.901Z,1003.2
2023-01-02T06:01:17.136Z,1003.3
2023-01-02T06:02:20.295Z,1003.2
2023-01-02T06:03:25.425Z,1003.2
2023-01-02T06:04:29.203Z,1003.2
2023-01-02T06:05:31.962Z,1003.2
2023-01-02T06:06:34.698Z,1003.3
2023-01-02T06:07:37.522Z,1003.2
2023-01-02T06:08:40.897Z,1003.2
2023-01-02T06:09:43.821Z,1003.2
2023-01-02T06:10:46.875Z,1003.2
2023-01-02T06:11:49.396Z,1003.2
2023-01-02T06:12:52.779Z,1003.3
2023-01-02T06:13:56.395Z,1003.2
2023-01-02T06:14:59.422Z,1003.2
2023-01-02T06:16:02.195Z,1003.2
2023-01-02T06:17:05.901Z,1003.2
2023-01-02T06:18:08.991Z,1003.2
2023-01-02T06:19:13.203Z,1003.3
2023-01-02T06:20:16.201Z,1003.2
2023-01-02T06:21:19.325Z,1003.2
2023-01-02T06:22:21.580Z,1003.3
2023-01-02T06:23:24.806Z,1003.2
2023-01-02T06:24:27.211Z,1003.2
2023-01-02T06:25:30.345Z,1003.2
2023-01-02T06:26:35.777Z,1003.2
2023-01-02T06:27:38.198Z,1003.2
2023-01-02T06:28:41.352Z,1003.2
2023-01-02T06:29:44.096Z,1003.2
2023-01-02T06:30:46.892Z,1003.2
2023-01-02T06:31:52.306Z,1003.1
2023-01-02T06:32:55.562Z,1003.2
2023-01-02T06:33:58.693Z,1003.1
2023-01-02T06:35:02.813Z,1003
2023-01-02T06:36:05.572Z,1003
2023-01-02T06:37:10.847Z,1003
2023-01-02T06:38:14.240Z,1002.9
2023-01-02T06:39:17.583Z,1002.9
2023-01-02T06:40:20.762Z,1002.9
2023-01-02T06:41:24.199Z,1003
2023-01-02T06:42:27.304Z,1003
2023-01-02T06:43:30.675Z,1003
2023-01-02T06:44:33.957Z,1002.9
2023-01-02T06:45:36.784Z,1002.9
2023-01-02T06:46:40.554Z,1002.9
2023-01-02T06:47:43.335Z,1002.9
2023-01-02T06:48:47.094Z,1003
2023-01-02T06:49:50.254Z,1003
2023-01-02T06:50:54.465Z,1003
2023-01-02T06:51:57.350Z,1003
2023-01-02T06:52:59.980Z,1003
2023-01-02T06:54:02.819Z,1003
2023-01-02T06:55:05.357Z,1003.1
2023-01-02T06:56:09.347Z,1003
2023-01-02T06:57:13.159Z,1003.1
2023-01-02T06:58:20.000Z,1003
2023-01-02T06:59:22.799Z,1003
2023-01-02T07:00:25.597Z,1003
2023-01-02T07:01:28.565Z,1003.1
2023-01-02T07:02:32.654Z,1003
2023-01-02T07:03:35.831Z,1003
2023-01-02T07:04:38.954Z,1003
2023-01-02T07:05:41.727Z,1003
2023-01-02T07:06:45.393Z,1003.1
2023-01-02T07:07:48.929Z,1003
2023-01-02T07:08:52.490Z,1003
2023-01-02T07:09:55.872Z,1003
2023-01-02T07:10:59.347Z,1003
2023-01-02T07:12:02.169Z,1003.1
2023-01-02T07:13:05.251Z,1003
2023-01-02T07:14:08.871Z,1003.1
2023-01-02T07:15:11.617Z,1002.9
2023-01-02T07:16:15.217Z,1002.9
2023-01-02T07:17:19.637Z,1002.9
2023-01-02T07:18:22.449Z,1002.9
2023-01-02T07:19:25.267Z,1002.9
2023-01-02T07:20:28.192Z,1002.9
2023-01-02T07:21:31.742Z,1002.9
2023-01-02T07:22:35.758Z,1002.9
2023-01-02T07:23:39.206Z,1002.9
2023-01-02T07:24:42.045Z,1002.9
2023-01-02T07:25:45.365Z,1002.8
2023-01-02T07:26:48.393Z,1002.9
2023-01-02T07:27:50.846Z,1002.9
2023-01-02T07:28:54.131Z,1002.9
2023-01-02T07:29:57.201Z,1002.9
2023-01-02T07:30:59.959Z,1002.9
2023-01-02T07:32:03.526Z,1002.9
2023-01-02T07:33:06.891Z,1003
2023-01-02T07:34:10.248Z,1002.9
2023-01-02T07:35:12.586Z,1002.9
2023-01-02T07:36:15.681Z,1002.9
2023-01-02T07:37:18.153Z,1003
2023-01-02T07:38:22.396Z,1003
2023-01-02T07:39:25.196Z,1003
2023-01-02T07:40:32.697Z,1003
2023-01-02T07:41:35.733Z,1002.9
2023-01-02T07:42:39.154Z,1003
2023-01-02T07:43:42.437Z,1003
2023-01-02T07:44:45.612Z,1003
2023-01-02T07:45:51.203Z,1003
2023-01-02T07:46:55.530Z,1003
2023-01-02T07:47:58.321Z,1003
2023-01-02T07:49:01.679Z,1002.9
2023-01-02T07:50:04.694Z,1002.9
2023-01-02T07:51:08.100Z,1002.9
2023-01-02T07:52:11.771Z,1003
2023-01-02T07:53:14.544Z,1003
2023-01-02T07:54:18.394Z,1003
2023-01-02T07:55:21.730Z,1003
2023-01-02T07:56:25.175Z,1002.9
2023-01-02T07:57:28.321Z,1002.9
2023-01-02T07:58:31.028Z,1003
2023-01-02T07:59:34.977Z,1003
2023-01-02T08:00:37.832Z,1003
2023-01-02T08:01:41.374Z,1003
2023-01-02T08:02:45.187Z,1003
2023-01-02T08:03:48.364Z,1003
2023-01-02T08:04:51.823Z,1003
2023-01-02T08:05:54.912Z,1003
2023-01-02T08:06:57.640Z,1003
2023-01-02T08:08:00.351Z,1003
2023-01-02T08:09:03.774Z,1003
2023-01-02T08:10:07.960Z,1003
2023-01-02T08:11:11.440Z,1003
2023-01-02T08:12:13.972Z,1003
2023-01-02T08:13:17.089Z,1003
2023-01-02T08:14:24.065Z,1003
2023-01-02T08:15:27.491Z,1003
2023-01-02T08:16:31.251Z,1003
2023-01-02T08:17:34.897Z,1003
2023-01-02T08:18:37.658Z,1002.9
2023-01-02T08:19:41.043Z,1003
2023-01-02T08:20:44.472Z,1003
2023-01-02T08:21:47.250Z,1002.9
2023-01-02T08:22:49.957Z,1003
2023-01-02T08:23:53.329Z,1003
2023-01-02T08:24:56.574Z,1003
2023-01-02T08:26:00.734Z,1003.1
2023-01-02T08:27:04.406Z,1003.1
2023-01-02T08:28:07.501Z,1003.1
2023-01-02T08:29:10.290Z,1003.1
2023-01-02T08:30:13.475Z,1003
2023-01-02T08:31:17.805Z,1003.1
2023-01-02T08:32:22.243Z,1003.1
2023-01-02T08:33:25.067Z,1003.1
2023-01-02T08:34:28.053Z,1003.2
2023-01-02T08:35:39.339Z,1003.2
2023-01-02T08:36:42.126Z,1003.2
2023-01-02T08:37:51.030Z,1003.2
2023-01-02T08:38:54.530Z,1003.2
2023-01-02T08:39:57.326Z,1003.2
2023-01-02T08:41:00.618Z,1003.2
2023-01-02T08:42:04.638Z,1003.2
2023-01-02T08:43:07.105Z,1003.1
2023-01-02T08:44:10.787Z,1003.2
2023-01-02T08:45:14.174Z,1003.2
2023-01-02T08:46:17.747Z,1003.2
2023-01-02T08:47:21.109Z,1003.2
2023-01-02T08:48:23.984Z,1003.2
2023-01-02T08:49:27.410Z,1003.2
2023-01-02T08:50:29.659Z,1003.2
2023-01-02T08:51:32.905Z,1003.3
2023-01-02T08:52:36.077Z,1003.3
2023-01-02T08:53:39.477Z,1003.3
2023-01-02T08:54:42.191Z,1003.3
2023-01-02T08:55:44.653Z,1003.3
2023-01-02T08:56:47.788Z,1003.3
2023-01-02T08:57:52.028Z,1003.3
2023-01-02T08:58:54.755Z,1003.3
2023-01-02T08:59:58.494Z,1003.3
2023-01-02T09:01:01.507Z,1003.3
2023-01-02T09:02:05.088Z,1003.2
2023-01-02T09:03:09.174Z,1003.3
2023-01-02T09:04:14.099Z,1003.3
2023-01-02T09:05:17.280Z,1003.3
2023-01-02T09:06:22.792Z,1003.3
2023-01-02T09:07:26.153Z,1003.3
2023-01-02T09:08:29.853Z,1003.3
2023-01-02T09:09:33.132Z,1003.2
2023-01-02T09:10:36.201Z,1003.2
2023-01-02T09:11:39.972Z,1003.3
2023-01-02T09:12:43.030Z,1003.3
2023-01-02T09:13:47.040Z,1003.3
2023-01-02T09:14:50.690Z,1003.3
2023-01-02T09:15:53.700Z,1003.3
2023-01-02T09:16:57.387Z,1003.3
2023-01-02T09:18:01.102Z,1003.2
2023-01-02T09:19:04.100Z,1003.3
2023-01-02T09:20:07.839Z,1003.4
2023-01-02T09:21:10.711Z,1003.3
2023-01-02T09:22:13.707Z,1003.3
2023-01-02T09:23:16.524Z,1003.3
2023-01-02T09:24:19.868Z,1003.3
2023-01-02T09:25:25.156Z,1003.3
2023-01-02T09:26:28.541Z,1003.3
2023-01-02T09:27:31.940Z,1003.2
2023-01-02T09:28:35.696Z,1003.3
2023-01-02T09:29:39.512Z,1003.2
2023-01-02T09:30:43.061Z,1003.2
2023-01-02T09:31:46.622Z,1003.2
2023-01-02T09:32:49.861Z,1003.2
2023-01-02T09:33:53.103Z,1003.1
2023-01-02T09:34:55.929Z,1003.2
2023-01-02T09:35:59.531Z,1003.2
2023-01-02T09:37:03.574Z,1003.2
2023-01-02T09:38:07.680Z,1003.2
2023-01-02T09:39:10.785Z,1003.2
2023-01-02T09:40:13.772Z,1003.2
2023-01-02T09:41:17.434Z,1003.2
2023-01-02T09:42:20.709Z,1003.1
2023-01-02T09:43:24.217Z,1003.2
2023-01-02T09:44:27.862Z,1003.2
2023-01-02T09:45:32.013Z,1003.2
2023-01-02T09:46:35.075Z,1003.2
2023-01-02T09:47:38.672Z,1003.2
2023-01-02T09:48:41.815Z,1003.2
2023-01-02T09:49:44.812Z,1003.2
2023-01-02T09:50:47.691Z,1003.2
2023-01-02T09:51:50.228Z,1003.3
2023-01-02T09:52:54.312Z,1003.3
2023-01-02T09:53:57.696Z,1003.2
2023-01-02T09:55:01.391Z,1003.2
2023-01-02T09:56:03.690Z,1003.2
2023-01-02T09:57:06.772Z,1003.1
2023-01-02T09:58:09.528Z,1003.1
2023-01-02T09:59:13.583Z,1003.2
2023-01-02T10:00:17.099Z,1003.1
2023-01-02T10:01:21.521Z,1003.1
2023-01-02T10:02:24.774Z,1003
2023-01-02T10:03:28.638Z,1003.1
2023-01-02T10:04:32.806Z,1003
2023-01-02T10:05:36.183Z,1003
2023-01-02T10:06:38.966Z,1003
2023-01-02T10:07:41.712Z,1003.1
2023-01-02T10:08:45.103Z,1003.1
2023-01-02T10:09:49.132Z,1003.1
2023-01-02T10:10:52.209Z,1003
2023-01-02T10:11:55.638Z,1003
2023-01-02T10:12:59.096Z,1003
2023-01-02T10:14:20.443Z,1003
2023-01-02T10:15:46.591Z,1003
2023-01-02T10:16:51.177Z,1003
2023-01-02T10:17:53.985Z,1003
2023-01-02T10:18:57.102Z,1003
2023-01-02T10:20:00.480Z,1003
2023-01-02T10:21:04.209Z,1002.9
2023-01-02T10:22:07.230Z,1003
2023-01-02T10:23:10.625Z,1003
2023-01-02T10:24:13.403Z,1003
2023-01-02T10:25:16.530Z,1002.9
2023-01-02T10:26:18.154Z,1003
2023-01-02T10:27:20.706Z,1003
2023-01-02T10:28:23.780Z,1003
2023-01-02T10:29:27.185Z,1003
2023-01-02T10:30:30.856Z,1002.9
2023-01-02T10:31:33.545Z,1002.9
2023-01-02T10:32:37.704Z,1002.9
2023-01-02T10:33:40.768Z,1002.8
2023-01-02T10:34:44.120Z,1002.8
2023-01-02T10:35:47.505Z,1002.8
2023-01-02T10:36:49.986Z,1002.8
2023-01-02T10:37:52.730Z,1002.8
2023-01-02T10:38:56.597Z,1002.9
2023-01-02T10:40:00.335Z,1002.6
2023-01-02T10:41:03.748Z,1002.9
2023-01-02T10:42:07.819Z,1002.9
2023-01-02T10:43:11.278Z,1003
2023-01-02T10:44:14.004Z,1002.8
2023-01-02T10:45:17.121Z,1002.8
2023-01-02T10:46:20.354Z,1002.8
2023-01-02T10:47:24.584Z,1002.8
2023-01-02T10:48:28.980Z,1002.9
2023-01-02T10:49:32.340Z,1002.8
2023-01-02T10:50:36.355Z,1002.7
2023-01-02T10:51:39.349Z,1002.9
2023-01-02T10:52:42.080Z,1002.8
2023-01-02T10:53:45.213Z,1002.8
2023-01-02T10:54:59.388Z,1002.8
2023-01-02T10:56:04.140Z,1002.8
2023-01-02T10:57:07.204Z,1002.9
2023-01-02T10:58:10.051Z,1002.9
2023-01-02T10:59:13.543Z,1002.8
2023-01-02T11:00:16.607Z,1002.9
2023-01-02T11:01:31.066Z,1002.9
2023-01-02T11:02:34.685Z,1002.9
2023-01-02T11:03:38.844Z,1002.9
2023-01-02T11:04:41.987Z,1002.9
2023-01-02T11:05:45.200Z,1002.9
2023-01-02T11:06:49.000Z,1002.9
2023-01-02T11:07:51.539Z,1002.9
2023-01-02T11:08:54.811Z,1003
2023-01-02T11:09:58.454Z,1002.9
2023-01-02T11:11:01.224Z,1002.9
2023-01-02T11:12:04.900Z,1002.9
2023-01-02T11:13:08.090Z,1003
2023-01-02T11:14:11.514Z,1003
2023-01-02T11:15:14.545Z,1002.9
2023-01-02T11:16:17.994Z,1002.9
2023-01-02T11:17:22.390Z,1002.9
2023-01-02T11:18:25.330Z,1002.9
2023-01-02T11:19:30.546Z,1002.9
2023-01-02T11:20:33.858Z,1003
2023-01-02T11:21:36.816Z,1003.2
2023-01-02T11:22:39.528Z,1003.1
2023-01-02T11:23:42.350Z,1003
2023-01-02T11:24:44.259Z,1003
2023-01-02T11:25:47.943Z,1003
2023-01-02T11:26:51.022Z,1003
2023-01-02T11:27:54.026Z,1003
2023-01-02T11:28:56.807Z,1003
2023-01-02T11:30:00.192Z,1003
2023-01-02T11:31:03.698Z,1003.1
2023-01-02T11:32:07.316Z,1003.2
2023-01-02T11:33:11.949Z,1003.2
2023-01-02T11:34:15.866Z,1003.1
2023-01-02T11:35:20.261Z,1003.1
2023-01-02T11:36:23.978Z,1003.1
2023-01-02T11:37:27.407Z,1003.1
2023-01-02T11:38:31.401Z,1003.2
2023-01-02T11:39:34.737Z,1003.1
2023-01-02T11:40:37.293Z,1003
2023-01-02T11:41:40.317Z,1003.3
2023-01-02T11:42:43.371Z,1003.2
2023-01-02T11:43:46.522Z,1003
2023-01-02T11:44:50.554Z,1003.2
2023-01-02T11:45:54.144Z,1003.2
2023-01-02T11:46:58.639Z,1003.3
2023-01-02T11:48:01.826Z,1003.1
2023-01-02T11:49:04.613Z,1003.1
2023-01-02T11:50:08.424Z,1003.1
2023-01-02T11:51:17.981Z,1003.1
2023-01-02T11:52:21.059Z,1003.2
2023-01-02T11:53:23.587Z,1003.2
2023-01-02T11:54:26.931Z,1003.2
2023-01-02T11:55:30.128Z,1003.2
2023-01-02T11:56:33.493Z,1003.2
2023-01-02T11:57:36.320Z,1003.2
2023-01-02T11:58:40.055Z,1003.1
2023-01-02T11:59:43.331Z,1003.2
2023-01-02T12:00:46.702Z,1003.2
2023-01-02T12:01:49.769Z,1003.1
2023-01-02T12:02:54.159Z,1003.2
2023-01-02T12:03:58.385Z,1003.2
2023-01-02T12:05:01.882Z,1003.3
2023-01-02T12:06:04.078Z,1003.2
2023-01-02T12:07:08.177Z,1003.2
2023-01-02T12:08:11.459Z,1003.2
2023-01-02T12:09:14.613Z,1003.2
2023-01-02T12:10:17.946Z,1003.2
2023-01-02T12:11:22.165Z,1003.2
2023-01-02T12:12:25.257Z,1003.2
2023-01-02T12:13:28.370Z,1003.2
2023-01-02T12:14:30.796Z,1003.2
2023-01-02T12:15:33.863Z,1003.2
2023-01-02T12:16:37.650Z,1003.3
2023-01-02T12:17:41.347Z,1003.1
2023-01-02T12:18:44.239Z,1003.3
2023-01-02T12:19:47.882Z,1003.2
2023-01-02T12:20:51.380Z,1003.3
2023-01-02T12:21:54.563Z,1003.3
2023-01-02T12:22:58.773Z,1003.3
2023-01-02T12:24:01.783Z,1003.4
2023-01-02T12:25:04.891Z,1003.4
2023-01-02T12:26:10.167Z,1003.4
2023-01-02T12:27:13.649Z,1003.4
2023-01-02T12:28:16.376Z,1003.4
2023-01-02T12:29:48.931Z,1003.4
2023-01-02T12:30:52.665Z,1003.3
2023-01-02T12:31:55.004Z,1003.3
2023-01-02T12:33:08.629Z,1003.4
2023-01-02T12:34:11.362Z,1003.4
2023-01-02T12:35:14.453Z,1003.4
2023-01-02T12:36:17.832Z,1003.5
2023-01-02T12:37:20.573Z,1003.5
2023-01-02T12:38:33.474Z,1003.6
2023-01-02T12:39:36.460Z,1003.6
2023-01-02T12:40:40.252Z,1003.5
2023-01-02T12:42:02.464Z,1003.5
2023-01-02T12:43:06.382Z,1003.5
2023-01-02T12:44:09.732Z,1003.6
2023-01-02T12:45:13.526Z,1003.6
2023-01-02T12:46:16.735Z,1003.6
2023-01-02T12:47:20.538Z,1003.6
2023-01-02T12:48:23.899Z,1003.6
2023-01-02T12:49:27.578Z,1003.6
2023-01-02T12:50:30.650Z,1003.7
2023-01-02T12:51:32.891Z,1003.7
2023-01-02T12:52:36.490Z,1003.8
2023-01-02T12:53:40.576Z,1003.8
2023-01-02T12:54:43.109Z,1003.9
2023-01-02T12:55:46.326Z,1004
2023-01-02T12:56:49.050Z,1003.9
2023-01-02T12:57:52.238Z,1003.9
2023-01-02T12:58:55.894Z,1003.9
2023-01-02T12:59:58.978Z,1003.9
2023-01-02T13:01:02.527Z,1004
2023-01-02T13:02:06.518Z,1004
2023-01-02T13:03:11.133Z,1004
2023-01-02T13:04:24.943Z,1004.1
2023-01-02T13:05:27.987Z,1004.2
2023-01-02T13:06:47.006Z,1004.1
2023-01-02T13:07:50.042Z,1004.1
2023-01-02T13:08:54.439Z,1004.1
2023-01-02T13:09:56.642Z,1004.1
2023-01-02T13:11:00.021Z,1004.1
2023-01-02T13:12:02.758Z,1004.2
2023-01-02T13:13:06.563Z,1004.2
2023-01-02T13:14:09.665Z,1004.3
2023-01-02T13:15:12.682Z,1004.4
2023-01-02T13:16:25.861Z,1004.4
2023-01-02T13:17:29.793Z,1004.5
2023-01-02T13:18:32.748Z,1004.5
2023-01-02T13:19:35.491Z,1004.5
2023-01-02T13:20:39.281Z,1004.5
2023-01-02T13:21:42.737Z,1004.6
2023-01-02T13:22:55.336Z,1004.4